sensor_id;sensor_type;location;lat;lon;timestamp;P1;durP1;ratioP1;P2;durP2;ratioP2
3249;SDS011;1637;42.020;23.992;2022-08-01T00:01:50;17.67;;;12.83;;
3249;SDS011;1637;42.020;23.992;2022-08-01T00:04:17;15.30;;;12.60;;
3249;SDS011;1637;42.020;23.992;2022-08-01T00:06:44;16.37;;;13.00;;
3249;SDS011;1637;42.020;23.992;2022-08-01T00:09:12;21.50;;;13.10;;
3249;SDS011;1637;42.020;23.992;2022-08-01T00:11:39;21.13;;;13.53;;
3249;SDS011;1637;42.020;23.992;2022-08-01T00:14:07;16.90;;;13.70;;
3249;SDS011;1637;42.020;23.992;2022-08-01T00:16:34;16.30;;;12.83;;
3249;SDS011;1637;42.020;23.992;2022-08-01T00:19:01;17.37;;;13.00;;
3249;SDS011;1637;42.020;23.992;2022-08-01T00:21:28;15.33;;;12.50;;
3249;SDS011;1637;42.020;23.992;2022-08-01T00:23:55;15.83;;;12.77;;
3249;SDS011;1637;42.020;23.992;2022-08-01T00:26:23;20.57;;;13.90;;
3249;SDS011;1637;42.020;23.992;2022-08-01T00:28:50;14.10;;;12.60;;
3249;SDS011;1637;42.020;23.992;2022-08-01T00:31:17;14.00;;;12.47;;
3249;SDS011;1637;42.020;23.992;2022-08-01T00:33:44;18.70;;;12.80;;
3249;SDS011;1637;42.020;23.992;2022-08-01T00:36:11;17.93;;;13.30;;
3249;SDS011;1637;42.020;23.992;2022-08-01T00:38:38;14.40;;;12.60;;
3249;SDS011;1637;42.020;23.992;2022-08-01T00:41:05;17.57;;;12.77;;
3249;SDS011;1637;42.020;23.992;2022-08-01T00:43:33;18.40;;;13.50;;
3249;SDS011;1637;42.020;23.992;2022-08-01T00:46:00;13.90;;;11.97;;
3249;SDS011;1637;42.020;23.992;2022-08-01T00:48:27;15.03;;;12.10;;
3249;SDS011;1637;42.020;23.992;2022-08-01T00:50:54;16.00;;;11.73;;
3249;SDS011;1637;42.020;23.992;2022-08-01T00:53:21;13.73;;;12.20;;
3249;SDS011;1637;42.020;23.992;2022-08-01T00:55:48;14.77;;;12.60;;
3249;SDS011;1637;42.020;23.992;2022-08-01T00:58:15;14.53;;;11.60;;
3249;SDS011;1637;42.020;23.992;2022-08-01T01:00:43;13.53;;;11.40;;
3249;SDS011;1637;42.020;23.992;2022-08-01T01:03:10;15.23;;;11.90;;
3249;SDS011;1637;42.020;23.992;2022-08-01T01:05:40;14.10;;;11.40;;
3249;SDS011;1637;42.020;23.992;2022-08-01T01:08:16;13.17;;;11.07;;
3249;SDS011;1637;42.020;23.992;2022-08-01T01:10:47;14.70;;;11.80;;
3249;SDS011;1637;42.020;23.992;2022-08-01T01:13:23;15.33;;;12.27;;
3249;SDS011;1637;42.020;23.992;2022-08-01T01:16:02;15.00;;;11.63;;
3249;SDS011;1637;42.020;23.992;2022-08-01T01:18:35;13.80;;;11.57;;
3249;SDS011;1637;42.020;23.992;2022-08-01T01:21:11;15.60;;;12.63;;
3249;SDS011;1637;42.020;23.992;2022-08-01T01:23:46;15.10;;;12.50;;
3249;SDS011;1637;42.020;23.992;2022-08-01T01:26:27;15.20;;;12.00;;
3249;SDS011;1637;42.020;23.992;2022-08-01T01:29:08;14.87;;;11.87;;
3249;SDS011;1637;42.020;23.992;2022-08-01T01:31:42;15.10;;;12.80;;
3249;SDS011;1637;42.020;23.992;2022-08-01T01:34:13;21.07;;;12.70;;
3249;SDS011;1637;42.020;23.992;2022-08-01T01:36:42;14.10;;;11.77;;
3249;SDS011;1637;42.020;23.992;2022-08-01T01:39:10;14.17;;;12.60;;
3249;SDS011;1637;42.020;23.992;2022-08-01T01:41:39;14.07;;;12.10;;
3249;SDS011;1637;42.020;23.992;2022-08-01T01:44:09;14.17;;;12.40;;
3249;SDS011;1637;42.020;23.992;2022-08-01T01:46:36;14.00;;;12.60;;
3249;SDS011;1637;42.020;23.992;2022-08-01T01:49:04;23.13;;;13.27;;
3249;SDS011;1637;42.020;23.992;2022-08-01T01:51:35;14.67;;;12.77;;
3249;SDS011;1637;42.020;23.992;2022-08-01T01:54:04;14.10;;;12.20;;
3249;SDS011;1637;42.020;23.992;2022-08-01T01:56:31;14.73;;;13.10;;
3249;SDS011;1637;42.020;23.992;2022-08-01T01:59:00;16.33;;;13.03;;
3249;SDS011;1637;42.020;23.992;2022-08-01T02:01:31;19.37;;;12.30;;
3249;SDS011;1637;42.020;23.992;2022-08-01T02:03:59;19.17;;;12.90;;
3249;SDS011;1637;42.020;23.992;2022-08-01T02:06:28;14.50;;;13.00;;
3249;SDS011;1637;42.020;23.992;2022-08-01T02:08:57;13.80;;;12.40;;
3249;SDS011;1637;42.020;23.992;2022-08-01T02:11:26;14.30;;;12.67;;
3249;SDS011;1637;42.020;23.992;2022-08-01T02:13:55;15.30;;;12.60;;
3249;SDS011;1637;42.020;23.992;2022-08-01T02:16:25;16.67;;;13.20;;
3249;SDS011;1637;42.020;23.992;2022-08-01T02:18:56;15.60;;;12.30;;
3249;SDS011;1637;42.020;23.992;2022-08-01T02:21:25;12.53;;;11.17;;
3249;SDS011;1637;42.020;23.992;2022-08-01T02:23:54;15.97;;;12.10;;
3249;SDS011;1637;42.020;23.992;2022-08-01T02:26:25;13.40;;;11.37;;
3249;SDS011;1637;42.020;23.992;2022-08-01T02:28:56;15.40;;;11.90;;
3249;SDS011;1637;42.020;23.992;2022-08-01T02:31:25;14.60;;;11.10;;
3249;SDS011;1637;42.020;23.992;2022-08-01T02:34:00;18.50;;;12.47;;
3249;SDS011;1637;42.020;23.992;2022-08-01T02:36:31;21.67;;;12.10;;
3249;SDS011;1637;42.020;23.992;2022-08-01T02:39:00;14.60;;;11.57;;
3249;SDS011;1637;42.020;23.992;2022-08-01T02:41:30;14.67;;;11.90;;
3249;SDS011;1637;42.020;23.992;2022-08-01T02:44:00;16.57;;;12.20;;
3249;SDS011;1637;42.020;23.992;2022-08-01T02:46:33;13.87;;;12.40;;
3249;SDS011;1637;42.020;23.992;2022-08-01T02:49:06;13.47;;;11.47;;
3249;SDS011;1637;42.020;23.992;2022-08-01T02:51:36;19.57;;;12.90;;
3249;SDS011;1637;42.020;23.992;2022-08-01T02:54:05;16.90;;;12.03;;
3249;SDS011;1637;42.020;23.992;2022-08-01T02:56:35;18.23;;;12.57;;
3249;SDS011;1637;42.020;23.992;2022-08-01T02:59:04;14.43;;;12.23;;
3249;SDS011;1637;42.020;23.992;2022-08-01T03:01:34;13.77;;;12.37;;
3249;SDS011;1637;42.020;23.992;2022-08-01T03:04:02;15.07;;;13.40;;
3249;SDS011;1637;42.020;23.992;2022-08-01T03:06:32;13.10;;;11.57;;
3249;SDS011;1637;42.020;23.992;2022-08-01T03:09:00;16.20;;;13.27;;
3249;SDS011;1637;42.020;23.992;2022-08-01T03:11:29;13.40;;;11.73;;
3249;SDS011;1637;42.020;23.992;2022-08-01T03:13:59;15.77;;;12.00;;
3249;SDS011;1637;42.020;23.992;2022-08-01T03:16:31;14.60;;;12.20;;
3249;SDS011;1637;42.020;23.992;2022-08-01T03:19:01;17.40;;;13.80;;
3249;SDS011;1637;42.020;23.992;2022-08-01T03:21:29;17.73;;;15.13;;
3249;SDS011;1637;42.020;23.992;2022-08-01T03:24:00;15.43;;;13.60;;
3249;SDS011;1637;42.020;23.992;2022-08-01T03:26:30;21.67;;;15.18;;
3249;SDS011;1637;42.020;23.992;2022-08-01T03:29:02;15.23;;;13.53;;
3249;SDS011;1637;42.020;23.992;2022-08-01T03:31:31;13.57;;;12.13;;
3249;SDS011;1637;42.020;23.992;2022-08-01T03:34:01;14.63;;;13.00;;
3249;SDS011;1637;42.020;23.992;2022-08-01T03:36:28;15.47;;;12.20;;
3249;SDS011;1637;42.020;23.992;2022-08-01T03:39:00;22.30;;;12.37;;
3249;SDS011;1637;42.020;23.992;2022-08-01T03:41:32;14.27;;;11.00;;
3249;SDS011;1637;42.020;23.992;2022-08-01T03:44:03;13.77;;;12.33;;
3249;SDS011;1637;42.020;23.992;2022-08-01T03:46:35;13.67;;;11.23;;
3249;SDS011;1637;42.020;23.992;2022-08-01T03:49:07;14.97;;;10.40;;
3249;SDS011;1637;42.020;23.992;2022-08-01T03:51:40;11.50;;;10.30;;
3249;SDS011;1637;42.020;23.992;2022-08-01T03:54:09;13.75;;;10.65;;
3249;SDS011;1637;42.020;23.992;2022-08-01T03:56:37;13.03;;;11.57;;
3249;SDS011;1637;42.020;23.992;2022-08-01T03:59:06;12.10;;;10.80;;
3249;SDS011;1637;42.020;23.992;2022-08-01T04:01:33;16.17;;;11.10;;
3249;SDS011;1637;42.020;23.992;2022-08-01T04:04:00;12.13;;;10.03;;
3249;SDS011;1637;42.020;23.992;2022-08-01T04:06:30;11.10;;;10.00;;
3249;SDS011;1637;42.020;23.992;2022-08-01T04:08:57;8.70;;;7.80;;
3249;SDS011;1637;42.020;23.992;2022-08-01T04:11:26;9.43;;;8.47;;
3249;SDS011;1637;42.020;23.992;2022-08-01T04:13:54;8.70;;;7.90;;
3249;SDS011;1637;42.020;23.992;2022-08-01T04:16:22;10.30;;;8.70;;
3249;SDS011;1637;42.020;23.992;2022-08-01T04:18:49;8.90;;;7.60;;
3249;SDS011;1637;42.020;23.992;2022-08-01T04:21:17;9.33;;;8.43;;
3249;SDS011;1637;42.020;23.992;2022-08-01T04:23:47;8.80;;;7.90;;
3249;SDS011;1637;42.020;23.992;2022-08-01T04:26:17;11.00;;;9.00;;
3249;SDS011;1637;42.020;23.992;2022-08-01T04:28:47;8.57;;;7.83;;
3249;SDS011;1637;42.020;23.992;2022-08-01T04:31:16;9.30;;;7.30;;
3249;SDS011;1637;42.020;23.992;2022-08-01T04:33:46;9.03;;;8.10;;
3249;SDS011;1637;42.020;23.992;2022-08-01T04:36:18;10.43;;;7.90;;
3249;SDS011;1637;42.020;23.992;2022-08-01T04:38:48;9.33;;;7.30;;
3249;SDS011;1637;42.020;23.992;2022-08-01T04:41:20;8.00;;;7.30;;
3249;SDS011;1637;42.020;23.992;2022-08-01T04:43:51;8.60;;;7.70;;
3249;SDS011;1637;42.020;23.992;2022-08-01T04:46:19;11.37;;;6.70;;
3249;SDS011;1637;42.020;23.992;2022-08-01T04:48:48;8.43;;;7.63;;
3249;SDS011;1637;42.020;23.992;2022-08-01T04:51:16;12.77;;;8.27;;
3249;SDS011;1637;42.020;23.992;2022-08-01T04:53:47;9.83;;;8.47;;
3249;SDS011;1637;42.020;23.992;2022-08-01T04:56:16;11.17;;;7.83;;
3249;SDS011;1637;42.020;23.992;2022-08-01T04:58:43;8.07;;;7.47;;
3249;SDS011;1637;42.020;23.992;2022-08-01T05:01:13;10.93;;;8.27;;
3249;SDS011;1637;42.020;23.992;2022-08-01T05:03:40;13.70;;;8.23;;
3249;SDS011;1637;42.020;23.992;2022-08-01T05:06:07;13.10;;;8.70;;
3249;SDS011;1637;42.020;23.992;2022-08-01T05:08:34;8.50;;;7.70;;
3249;SDS011;1637;42.020;23.992;2022-08-01T05:11:02;7.90;;;7.10;;
3249;SDS011;1637;42.020;23.992;2022-08-01T05:13:29;6.93;;;6.33;;
3249;SDS011;1637;42.020;23.992;2022-08-01T05:15:55;7.70;;;7.00;;
3249;SDS011;1637;42.020;23.992;2022-08-01T05:18:24;11.50;;;8.40;;
3249;SDS011;1637;42.020;23.992;2022-08-01T05:20:51;7.73;;;7.00;;
3249;SDS011;1637;42.020;23.992;2022-08-01T05:23:18;7.40;;;6.80;;
3249;SDS011;1637;42.020;23.992;2022-08-01T05:25:45;9.60;;;6.77;;
3249;SDS011;1637;42.020;23.992;2022-08-01T05:28:14;11.13;;;7.20;;
3249;SDS011;1637;42.020;23.992;2022-08-01T05:30:40;7.17;;;6.57;;
3249;SDS011;1637;42.020;23.992;2022-08-01T05:33:07;7.47;;;6.80;;
3249;SDS011;1637;42.020;23.992;2022-08-01T05:35:36;7.13;;;6.53;;
3249;SDS011;1637;42.020;23.992;2022-08-01T05:38:03;7.87;;;7.00;;
3249;SDS011;1637;42.020;23.992;2022-08-01T05:40:30;8.80;;;6.70;;
3249;SDS011;1637;42.020;23.992;2022-08-01T05:42:57;10.97;;;7.73;;
3249;SDS011;1637;42.020;23.992;2022-08-01T05:45:24;8.33;;;7.47;;
3249;SDS011;1637;42.020;23.992;2022-08-01T05:47:51;11.20;;;6.50;;
3249;SDS011;1637;42.020;23.992;2022-08-01T05:50:18;7.27;;;6.70;;
3249;SDS011;1637;42.020;23.992;2022-08-01T05:52:46;12.50;;;9.40;;
3249;SDS011;1637;42.020;23.992;2022-08-01T05:55:13;7.53;;;6.80;;
3249;SDS011;1637;42.020;23.992;2022-08-01T05:57:40;6.43;;;5.93;;
3249;SDS011;1637;42.020;23.992;2022-08-01T06:00:07;7.63;;;6.87;;
3249;SDS011;1637;42.020;23.992;2022-08-01T06:02:39;7.40;;;6.80;;
3249;SDS011;1637;42.020;23.992;2022-08-01T06:05:07;9.30;;;6.63;;
3249;SDS011;1637;42.020;23.992;2022-08-01T06:07:34;15.20;;;6.60;;
3249;SDS011;1637;42.020;23.992;2022-08-01T06:10:05;8.20;;;6.47;;
3249;SDS011;1637;42.020;23.992;2022-08-01T06:12:33;7.23;;;6.57;;
3249;SDS011;1637;42.020;23.992;2022-08-01T06:15:00;9.67;;;6.20;;
3249;SDS011;1637;42.020;23.992;2022-08-01T06:17:28;7.17;;;6.40;;
3249;SDS011;1637;42.020;23.992;2022-08-01T06:19:55;7.63;;;6.27;;
3249;SDS011;1637;42.020;23.992;2022-08-01T06:22:22;7.00;;;6.40;;
3249;SDS011;1637;42.020;23.992;2022-08-01T06:24:48;9.00;;;5.93;;
3249;SDS011;1637;42.020;23.992;2022-08-01T06:27:17;7.23;;;5.67;;
3249;SDS011;1637;42.020;23.992;2022-08-01T06:29:44;15.23;;;6.70;;
3249;SDS011;1637;42.020;23.992;2022-08-01T06:32:11;7.80;;;7.10;;
3249;SDS011;1637;42.020;23.992;2022-08-01T06:34:38;15.13;;;6.73;;
3249;SDS011;1637;42.020;23.992;2022-08-01T06:37:05;8.70;;;6.13;;
3249;SDS011;1637;42.020;23.992;2022-08-01T06:39:32;8.10;;;7.40;;
3249;SDS011;1637;42.020;23.992;2022-08-01T06:41:59;19.57;;;7.87;;
3249;SDS011;1637;42.020;23.992;2022-08-01T06:44:27;7.40;;;5.20;;
3249;SDS011;1637;42.020;23.992;2022-08-01T06:46:54;8.17;;;5.33;;
3249;SDS011;1637;42.020;23.992;2022-08-01T06:49:23;7.27;;;4.67;;
3249;SDS011;1637;42.020;23.992;2022-08-01T06:51:50;7.07;;;5.17;;
3249;SDS011;1637;42.020;23.992;2022-08-01T06:54:17;8.93;;;5.37;;
3249;SDS011;1637;42.020;23.992;2022-08-01T06:56:44;12.33;;;11.23;;
3249;SDS011;1637;42.020;23.992;2022-08-01T06:59:11;5.60;;;5.20;;
3249;SDS011;1637;42.020;23.992;2022-08-01T07:01:39;6.00;;;5.50;;
3249;SDS011;1637;42.020;23.992;2022-08-01T07:04:06;11.50;;;7.10;;
3249;SDS011;1637;42.020;23.992;2022-08-01T07:06:33;8.97;;;6.97;;
3249;SDS011;1637;42.020;23.992;2022-08-01T07:09:00;10.00;;;8.43;;
3249;SDS011;1637;42.020;23.992;2022-08-01T07:11:28;3.83;;;3.53;;
3249;SDS011;1637;42.020;23.992;2022-08-01T07:13:55;14.30;;;10.27;;
3249;SDS011;1637;42.020;23.992;2022-08-01T07:16:22;3.27;;;3.03;;
3249;SDS011;1637;42.020;23.992;2022-08-01T07:18:50;12.83;;;6.10;;
3249;SDS011;1637;42.020;23.992;2022-08-01T07:21:17;4.30;;;3.30;;
3249;SDS011;1637;42.020;23.992;2022-08-01T07:23:44;4.00;;;3.13;;
3249;SDS011;1637;42.020;23.992;2022-08-01T07:26:11;9.50;;;6.93;;
3249;SDS011;1637;42.020;23.992;2022-08-01T07:28:38;5.10;;;3.63;;
3249;SDS011;1637;42.020;23.992;2022-08-01T07:31:05;2.70;;;2.50;;
3249;SDS011;1637;42.020;23.992;2022-08-01T07:33:32;8.53;;;3.20;;
3249;SDS011;1637;42.020;23.992;2022-08-01T07:36:00;3.13;;;2.70;;
3249;SDS011;1637;42.020;23.992;2022-08-01T07:38:28;5.23;;;3.27;;
3249;SDS011;1637;42.020;23.992;2022-08-01T07:40:55;4.27;;;3.07;;
3249;SDS011;1637;42.020;23.992;2022-08-01T07:43:22;3.20;;;2.90;;
3249;SDS011;1637;42.020;23.992;2022-08-01T07:45:49;3.63;;;3.23;;
3249;SDS011;1637;42.020;23.992;2022-08-01T07:48:16;2.40;;;2.20;;
3249;SDS011;1637;42.020;23.992;2022-08-01T07:50:44;2.70;;;2.10;;
3249;SDS011;1637;42.020;23.992;2022-08-01T07:53:12;2.73;;;2.57;;
3249;SDS011;1637;42.020;23.992;2022-08-01T07:55:39;3.00;;;2.10;;
3249;SDS011;1637;42.020;23.992;2022-08-01T07:58:06;2.60;;;2.40;;
3249;SDS011;1637;42.020;23.992;2022-08-01T08:00:33;2.50;;;2.30;;
3249;SDS011;1637;42.020;23.992;2022-08-01T08:03:00;4.27;;;2.83;;
3249;SDS011;1637;42.020;23.992;2022-08-01T08:05:26;2.83;;;2.27;;
3249;SDS011;1637;42.020;23.992;2022-08-01T08:07:53;6.10;;;2.27;;
3249;SDS011;1637;42.020;23.992;2022-08-01T08:10:22;5.87;;;2.60;;
3249;SDS011;1637;42.020;23.992;2022-08-01T08:12:48;2.13;;;1.93;;
3249;SDS011;1637;42.020;23.992;2022-08-01T08:15:15;3.10;;;2.00;;
3249;SDS011;1637;42.020;23.992;2022-08-01T08:17:42;2.30;;;2.00;;
3249;SDS011;1637;42.020;23.992;2022-08-01T08:20:09;2.27;;;2.07;;
3249;SDS011;1637;42.020;23.992;2022-08-01T08:22:37;2.20;;;2.00;;
3249;SDS011;1637;42.020;23.992;2022-08-01T08:25:05;3.93;;;1.83;;
3249;SDS011;1637;42.020;23.992;2022-08-01T08:27:34;5.30;;;3.10;;
3249;SDS011;1637;42.020;23.992;2022-08-01T08:30:01;1.80;;;1.70;;
3249;SDS011;1637;42.020;23.992;2022-08-01T08:32:30;2.10;;;1.73;;
3249;SDS011;1637;42.020;23.992;2022-08-01T08:34:57;2.13;;;1.80;;
3249;SDS011;1637;42.020;23.992;2022-08-01T08:37:24;7.40;;;1.73;;
3249;SDS011;1637;42.020;23.992;2022-08-01T08:39:51;3.57;;;1.60;;
3249;SDS011;1637;42.020;23.992;2022-08-01T08:42:18;1.87;;;1.77;;
3249;SDS011;1637;42.020;23.992;2022-08-01T08:44:46;1.60;;;1.50;;
3249;SDS011;1637;42.020;23.992;2022-08-01T08:47:13;1.80;;;1.60;;
3249;SDS011;1637;42.020;23.992;2022-08-01T08:49:41;2.60;;;1.70;;
3249;SDS011;1637;42.020;23.992;2022-08-01T08:52:10;4.40;;;2.30;;
3249;SDS011;1637;42.020;23.992;2022-08-01T08:54:38;2.80;;;1.80;;
3249;SDS011;1637;42.020;23.992;2022-08-01T08:57:07;3.37;;;1.80;;
3249;SDS011;1637;42.020;23.992;2022-08-01T08:59:35;4.10;;;1.83;;
3249;SDS011;1637;42.020;23.992;2022-08-01T09:02:04;4.17;;;2.50;;
3249;SDS011;1637;42.020;23.992;2022-08-01T09:04:34;1.83;;;1.73;;
3249;SDS011;1637;42.020;23.992;2022-08-01T09:07:03;3.97;;;2.10;;
3249;SDS011;1637;42.020;23.992;2022-08-01T09:09:30;2.87;;;2.10;;
3249;SDS011;1637;42.020;23.992;2022-08-01T09:11:58;1.70;;;1.60;;
3249;SDS011;1637;42.020;23.992;2022-08-01T09:14:25;1.90;;;1.77;;
3249;SDS011;1637;42.020;23.992;2022-08-01T09:16:58;20.20;;;3.70;;
3249;SDS011;1637;42.020;23.992;2022-08-01T09:19:34;3.40;;;1.90;;
3249;SDS011;1637;42.020;23.992;2022-08-01T09:22:03;2.37;;;2.00;;
3249;SDS011;1637;42.020;23.992;2022-08-01T09:24:32;1.70;;;1.60;;
3249;SDS011;1637;42.020;23.992;2022-08-01T09:27:00;3.50;;;2.00;;
3249;SDS011;1637;42.020;23.992;2022-08-01T09:29:40;8.00;;;2.63;;
3249;SDS011;1637;42.020;23.992;2022-08-01T09:32:09;2.37;;;1.90;;
3249;SDS011;1637;42.020;23.992;2022-08-01T09:34:38;2.83;;;1.90;;
3249;SDS011;1637;42.020;23.992;2022-08-01T09:37:05;7.13;;;2.30;;
3249;SDS011;1637;42.020;23.992;2022-08-01T09:39:33;3.27;;;2.40;;
3249;SDS011;1637;42.020;23.992;2022-08-01T09:44:45;7.63;;;2.37;;
3249;SDS011;1637;42.020;23.992;2022-08-01T09:47:12;5.40;;;3.17;;
3249;SDS011;1637;42.020;23.992;2022-08-01T09:49:43;2.13;;;1.93;;
3249;SDS011;1637;42.020;23.992;2022-08-01T09:52:11;2.10;;;2.00;;
3249;SDS011;1637;42.020;23.992;2022-08-01T09:54:40;2.60;;;1.83;;
3249;SDS011;1637;42.020;23.992;2022-08-01T09:57:09;2.83;;;2.10;;
3249;SDS011;1637;42.020;23.992;2022-08-01T09:59:37;3.20;;;1.60;;
3249;SDS011;1637;42.020;23.992;2022-08-01T10:02:07;2.50;;;2.27;;
3249;SDS011;1637;42.020;23.992;2022-08-01T10:04:36;3.17;;;2.87;;
3249;SDS011;1637;42.020;23.992;2022-08-01T10:07:05;2.70;;;2.23;;
3249;SDS011;1637;42.020;23.992;2022-08-01T10:09:34;5.33;;;2.07;;
3249;SDS011;1637;42.020;23.992;2022-08-01T10:12:02;2.13;;;1.93;;
3249;SDS011;1637;42.020;23.992;2022-08-01T10:14:31;5.53;;;2.50;;
3249;SDS011;1637;42.020;23.992;2022-08-01T10:16:58;2.50;;;2.10;;
3249;SDS011;1637;42.020;23.992;2022-08-01T10:19:27;5.20;;;3.60;;
3249;SDS011;1637;42.020;23.992;2022-08-01T10:21:55;6.10;;;3.97;;
3249;SDS011;1637;42.020;23.992;2022-08-01T10:24:25;3.13;;;2.90;;
3249;SDS011;1637;42.020;23.992;2022-08-01T10:26:55;3.93;;;3.60;;
3249;SDS011;1637;42.020;23.992;2022-08-01T10:29:28;2.20;;;2.00;;
3249;SDS011;1637;42.020;23.992;2022-08-01T10:32:01;17.63;;;2.60;;
3249;SDS011;1637;42.020;23.992;2022-08-01T10:34:28;3.40;;;2.80;;
3249;SDS011;1637;42.020;23.992;2022-08-01T10:36:56;2.50;;;2.30;;
3249;SDS011;1637;42.020;23.992;2022-08-01T10:39:25;7.77;;;2.07;;
3249;SDS011;1637;42.020;23.992;2022-08-01T10:41:53;5.83;;;1.90;;
3249;SDS011;1637;42.020;23.992;2022-08-01T10:44:21;4.30;;;2.07;;
3249;SDS011;1637;42.020;23.992;2022-08-01T10:46:50;3.83;;;2.40;;
3249;SDS011;1637;42.020;23.992;2022-08-01T10:49:22;2.30;;;2.07;;
3249;SDS011;1637;42.020;23.992;2022-08-01T10:51:52;3.10;;;2.30;;
3249;SDS011;1637;42.020;23.992;2022-08-01T10:54:20;6.93;;;3.90;;
3249;SDS011;1637;42.020;23.992;2022-08-01T10:56:52;3.40;;;3.10;;
3249;SDS011;1637;42.020;23.992;2022-08-01T10:59:21;5.73;;;2.77;;
3249;SDS011;1637;42.020;23.992;2022-08-01T11:01:56;3.60;;;2.87;;
3249;SDS011;1637;42.020;23.992;2022-08-01T11:04:37;3.33;;;2.43;;
3249;SDS011;1637;42.020;23.992;2022-08-01T11:07:16;2.33;;;2.00;;
3249;SDS011;1637;42.020;23.992;2022-08-01T11:09:46;6.10;;;3.07;;
3249;SDS011;1637;42.020;23.992;2022-08-01T11:12:14;5.67;;;4.97;;
3249;SDS011;1637;42.020;23.992;2022-08-01T11:17:53;4.77;;;3.57;;
3249;SDS011;1637;42.020;23.992;2022-08-01T11:20:21;5.63;;;2.20;;
3249;SDS011;1637;42.020;23.992;2022-08-01T11:26:07;5.50;;;5.00;;
3249;SDS011;1637;42.020;23.992;2022-08-01T11:28:41;6.40;;;4.43;;
3249;SDS011;1637;42.020;23.992;2022-08-01T11:31:29;4.33;;;2.17;;
3249;SDS011;1637;42.020;23.992;2022-08-01T11:33:57;3.50;;;2.43;;
3249;SDS011;1637;42.020;23.992;2022-08-01T11:36:25;4.20;;;2.30;;
3249;SDS011;1637;42.020;23.992;2022-08-01T11:41:40;7.30;;;2.33;;
3249;SDS011;1637;42.020;23.992;2022-08-01T11:44:09;6.80;;;2.10;;
3249;SDS011;1637;42.020;23.992;2022-08-01T11:46:50;2.83;;;1.90;;
3249;SDS011;1637;42.020;23.992;2022-08-01T11:49:22;5.40;;;2.40;;
3249;SDS011;1637;42.020;23.992;2022-08-01T11:52:01;1.90;;;1.80;;
3249;SDS011;1637;42.020;23.992;2022-08-01T11:54:30;3.07;;;2.03;;
3249;SDS011;1637;42.020;23.992;2022-08-01T11:57:00;4.30;;;2.13;;
3249;SDS011;1637;42.020;23.992;2022-08-01T11:59:34;3.83;;;2.27;;
3249;SDS011;1637;42.020;23.992;2022-08-01T12:02:02;2.10;;;1.90;;
3249;SDS011;1637;42.020;23.992;2022-08-01T12:04:43;4.10;;;2.30;;
3249;SDS011;1637;42.020;23.992;2022-08-01T12:07:12;4.37;;;2.10;;
3249;SDS011;1637;42.020;23.992;2022-08-01T12:09:39;5.23;;;2.50;;
3249;SDS011;1637;42.020;23.992;2022-08-01T12:12:08;3.77;;;2.53;;
3249;SDS011;1637;42.020;23.992;2022-08-01T12:14:35;3.00;;;2.20;;
3249;SDS011;1637;42.020;23.992;2022-08-01T12:17:02;5.20;;;2.10;;
3249;SDS011;1637;42.020;23.992;2022-08-01T12:19:29;2.20;;;2.00;;
3249;SDS011;1637;42.020;23.992;2022-08-01T12:22:06;22.37;;;3.17;;
3249;SDS011;1637;42.020;23.992;2022-08-01T12:24:37;2.23;;;2.03;;
3249;SDS011;1637;42.020;23.992;2022-08-01T12:27:07;6.13;;;2.00;;
3249;SDS011;1637;42.020;23.992;2022-08-01T12:29:37;3.60;;;2.33;;
3249;SDS011;1637;42.020;23.992;2022-08-01T12:32:20;9.40;;;2.13;;
3249;SDS011;1637;42.020;23.992;2022-08-01T12:34:49;3.43;;;2.00;;
3249;SDS011;1637;42.020;23.992;2022-08-01T12:37:16;2.60;;;2.40;;
3249;SDS011;1637;42.020;23.992;2022-08-01T12:39:44;12.20;;;2.53;;
3249;SDS011;1637;42.020;23.992;2022-08-01T12:42:13;2.77;;;2.20;;
3249;SDS011;1637;42.020;23.992;2022-08-01T12:44:41;2.30;;;2.13;;
3249;SDS011;1637;42.020;23.992;2022-08-01T12:47:11;5.67;;;2.50;;
3249;SDS011;1637;42.020;23.992;2022-08-01T12:49:39;2.20;;;2.00;;
3249;SDS011;1637;42.020;23.992;2022-08-01T12:52:09;4.63;;;1.77;;
3249;SDS011;1637;42.020;23.992;2022-08-01T12:57:35;4.33;;;2.03;;
3249;SDS011;1637;42.020;23.992;2022-08-01T13:00:07;3.80;;;1.90;;
3249;SDS011;1637;42.020;23.992;2022-08-01T13:02:39;2.80;;;2.37;;
3249;SDS011;1637;42.020;23.992;2022-08-01T13:05:07;3.73;;;1.83;;
3249;SDS011;1637;42.020;23.992;2022-08-01T13:07:36;4.70;;;2.27;;
3249;SDS011;1637;42.020;23.992;2022-08-01T13:10:04;2.13;;;1.93;;
3249;SDS011;1637;42.020;23.992;2022-08-01T13:12:31;3.17;;;1.87;;
3249;SDS011;1637;42.020;23.992;2022-08-01T13:15:12;3.40;;;2.27;;
3249;SDS011;1637;42.020;23.992;2022-08-01T13:17:43;6.33;;;2.30;;
3249;SDS011;1637;42.020;23.992;2022-08-01T13:20:10;2.10;;;1.90;;
3249;SDS011;1637;42.020;23.992;2022-08-01T13:22:48;2.67;;;2.23;;
3249;SDS011;1637;42.020;23.992;2022-08-01T13:25:16;9.83;;;2.00;;
3249;SDS011;1637;42.020;23.992;2022-08-01T13:27:43;3.07;;;2.10;;
3249;SDS011;1637;42.020;23.992;2022-08-01T13:30:12;2.90;;;2.00;;
3249;SDS011;1637;42.020;23.992;2022-08-01T13:32:40;1.90;;;1.80;;
3249;SDS011;1637;42.020;23.992;2022-08-01T13:35:09;2.87;;;1.90;;
3249;SDS011;1637;42.020;23.992;2022-08-01T13:37:38;3.30;;;2.07;;
3249;SDS011;1637;42.020;23.992;2022-08-01T13:40:07;5.40;;;2.57;;
3249;SDS011;1637;42.020;23.992;2022-08-01T13:42:36;4.83;;;2.37;;
3249;SDS011;1637;42.020;23.992;2022-08-01T13:45:04;3.97;;;2.00;;
3249;SDS011;1637;42.020;23.992;2022-08-01T13:47:36;2.37;;;2.17;;
3249;SDS011;1637;42.020;23.992;2022-08-01T13:50:04;9.33;;;2.30;;
3249;SDS011;1637;42.020;23.992;2022-08-01T13:52:31;3.43;;;2.30;;
3249;SDS011;1637;42.020;23.992;2022-08-01T13:54:58;4.83;;;2.30;;
3249;SDS011;1637;42.020;23.992;2022-08-01T13:57:26;7.03;;;2.70;;
3249;SDS011;1637;42.020;23.992;2022-08-01T13:59:53;2.33;;;2.07;;
3249;SDS011;1637;42.020;23.992;2022-08-01T14:02:23;2.73;;;2.33;;
3249;SDS011;1637;42.020;23.992;2022-08-01T14:04:51;2.93;;;2.73;;
3249;SDS011;1637;42.020;23.992;2022-08-01T14:07:19;4.17;;;2.50;;
3249;SDS011;1637;42.020;23.992;2022-08-01T14:09:46;5.53;;;2.30;;
3249;SDS011;1637;42.020;23.992;2022-08-01T14:12:13;6.20;;;2.67;;
3249;SDS011;1637;42.020;23.992;2022-08-01T14:14:40;4.20;;;2.30;;
3249;SDS011;1637;42.020;23.992;2022-08-01T14:17:07;4.53;;;2.57;;
3249;SDS011;1637;42.020;23.992;2022-08-01T14:19:33;3.40;;;2.67;;
3249;SDS011;1637;42.020;23.992;2022-08-01T14:22:02;4.63;;;3.30;;
3249;SDS011;1637;42.020;23.992;2022-08-01T14:24:29;4.77;;;3.50;;
3249;SDS011;1637;42.020;23.992;2022-08-01T14:26:56;2.10;;;2.00;;
3249;SDS011;1637;42.020;23.992;2022-08-01T14:29:22;4.43;;;4.03;;
3249;SDS011;1637;42.020;23.992;2022-08-01T14:31:49;3.40;;;2.80;;
3249;SDS011;1637;42.020;23.992;2022-08-01T14:34:16;5.20;;;2.30;;
3249;SDS011;1637;42.020;23.992;2022-08-01T14:36:43;3.53;;;2.50;;
3249;SDS011;1637;42.020;23.992;2022-08-01T14:39:11;6.00;;;2.90;;
3249;SDS011;1637;42.020;23.992;2022-08-01T14:41:38;2.60;;;2.30;;
3249;SDS011;1637;42.020;23.992;2022-08-01T14:44:05;3.30;;;2.73;;
3249;SDS011;1637;42.020;23.992;2022-08-01T14:46:34;6.30;;;2.60;;
3249;SDS011;1637;42.020;23.992;2022-08-01T14:49:01;3.40;;;2.67;;
3249;SDS011;1637;42.020;23.992;2022-08-01T14:51:27;3.47;;;2.80;;
3249;SDS011;1637;42.020;23.992;2022-08-01T14:53:58;2.93;;;2.63;;
3249;SDS011;1637;42.020;23.992;2022-08-01T14:56:26;2.90;;;2.70;;
3249;SDS011;1637;42.020;23.992;2022-08-01T14:58:53;3.63;;;2.53;;
3249;SDS011;1637;42.020;23.992;2022-08-01T15:01:20;2.60;;;2.40;;
3249;SDS011;1637;42.020;23.992;2022-08-01T15:03:47;3.40;;;3.10;;
3249;SDS011;1637;42.020;23.992;2022-08-01T15:06:15;2.30;;;2.10;;
3249;SDS011;1637;42.020;23.992;2022-08-01T15:08:43;3.37;;;2.80;;
3249;SDS011;1637;42.020;23.992;2022-08-01T15:11:10;3.03;;;2.03;;
3249;SDS011;1637;42.020;23.992;2022-08-01T15:13:38;3.17;;;2.50;;
3249;SDS011;1637;42.020;23.992;2022-08-01T15:16:05;3.57;;;2.63;;
3249;SDS011;1637;42.020;23.992;2022-08-01T15:18:32;5.73;;;3.57;;